Robertsport/Cape Mount Airport

Jump to: basic info | weather | comments

Related pages: nearby airports | nearby navaids | notams | map

Basic information (top)

Codes: GLCM
Location: lon 6.800000, lat -11.367000, elev 10 ft / 3 m msl
Status: small_airport

Weather (top)

Current conditions for Roberts International Airport 69nm (128km) ESE (rec'd 2014/12/23 01:30Z):

GLRB 230130Z 00000KT 8000 SCT012 24/23 Q1013 RMK BRVC

Airport forecast for Roberts International Airport 69nm (128km) ESE (rec'd 2014/12/22 00:51Z):

TAF GLRB 222200Z 2300/2406 02004KT 8000 SCT016 SCT016 
      BECMG 2302/2304 00000KT 4000 BR SCT013 
      TEMPO 2305/2310 24006KT 9000 SCT016

Latest comments (top)

No comments yet for Robertsport/Cape Mount Airport

More... (top)

See also NOTAMs and nearby airports and navaids, or visit the Robertsport/Cape Mount Airport page at the main OurAirports website..